Time;durP1;ratioP1;P1;durP2;ratioP2;P2;SDS_P1;SDS_P2;PMS_P1;PMS_P2;Temp;Humidity;BMP_temperature;BMP_pressure;BME280_temperature;BME280_humidity;BME280_pressure;Samples;Min_cycle;Max_cycle;Signal;HPM_P1;HPM_P2
2021/12/12 00:02:11;;;;;;;;;;;3.90;99.90;;;;;;5022312;28;20041;-62
2021/12/12 00:04:39;;;;;;;60.85;32.60;;;3.80;99.90;;;;;;5023454;28;19980;-63
2021/12/12 00:07:11;;;;;;;68.82;34.38;;;3.80;99.90;;;;;;5023224;28;20053;-62
2021/12/12 00:09:44;;;;;;;68.63;34.55;;;3.90;99.90;;;;;;5023750;28;20054;-63
2021/12/12 00:12:35;;;;;;;70.60;35.35;;;3.90;99.90;;;;;;5023886;28;20061;-62
2021/12/12 00:15:02;;;;;;;74.57;35.40;;;3.90;99.90;;;;;;5022432;28;20046;-62
2021/12/12 00:17:28;;;;;;;67.97;33.97;;;3.90;99.90;;;;;;5022308;28;20050;-63
2021/12/12 00:19:55;;;;;;;64.80;33.50;;;3.90;99.90;;;;;;5024172;28;20630;-63
2021/12/12 00:22:22;;;;;;;;;;;3.90;99.90;;;;;;5022913;28;20115;-63
2021/12/12 00:24:48;;;;;;;74.50;33.53;;;3.90;99.90;;;;;;5022312;28;19921;-62
2021/12/12 00:27:15;;;;;;;67.05;32.90;;;3.90;99.90;;;;;;5023724;28;20428;-62
2021/12/12 00:29:41;;;;;;;72.05;33.70;;;3.90;99.90;;;;;;5023828;28;20049;-62
2021/12/12 00:32:11;;;;;;;61.20;34.13;;;3.90;99.90;;;;;;5023140;28;20045;-62
2021/12/12 00:34:47;;;;;;;69.70;34.92;;;4.00;99.90;;;;;;5023655;28;20125;-62
2021/12/12 00:37:13;;;;;;;63.35;33.70;;;4.00;99.90;;;;;;5023210;28;20038;-63
2021/12/12 00:39:44;;;;;;;64.70;33.60;;;4.00;99.90;;;;;;5023394;28;20065;-62
2021/12/12 00:42:16;;;;;;;70.63;35.92;;;4.00;99.90;;;;;;5022084;28;20049;-62
2021/12/12 00:44:47;;;;;;;65.57;34.00;;;4.00;99.90;;;;;;5023895;28;20133;-63
2021/12/12 00:47:13;;;;;;;66.30;34.15;;;4.00;99.90;;;;;;5018617;28;20107;-62
2021/12/12 00:49:41;;;;;;;68.45;34.88;;;4.00;99.90;;;;;;5022631;28;20508;-63
2021/12/12 00:52:09;;;;;;;71.28;34.40;;;4.00;99.90;;;;;;5021801;28;20109;-62
2021/12/12 00:54:36;;;;;;;67.93;34.83;;;4.00;99.90;;;;;;5019679;28;20090;-62
2021/12/12 00:57:06;;;;;;;73.53;37.40;;;4.00;99.90;;;;;;5017317;28;20120;-63
2021/12/12 00:59:33;;;;;;;70.72;35.83;;;4.00;99.90;;;;;;5022996;28;20091;-62
2021/12/12 01:02:00;;;;;;;63.97;35.15;;;4.00;99.90;;;;;;5021899;28;20127;-62
2021/12/12 01:04:32;;;;;;;60.72;33.45;;;4.10;99.90;;;;;;5021601;28;20414;-62
2021/12/12 01:07:01;;;;;;;67.03;36.03;;;4.00;99.90;;;;;;5021473;28;20041;-63
2021/12/12 01:09:31;;;;;;;66.38;35.55;;;4.00;99.90;;;;;;5021183;28;20045;-63
2021/12/12 01:12:00;;;;;;;66.47;35.90;;;4.00;99.90;;;;;;5021051;28;20053;-63
2021/12/12 01:14:31;;;;;;;74.22;37.10;;;4.00;99.90;;;;;;5021733;28;20046;-63
2021/12/12 01:17:00;;;;;;;78.35;36.72;;;4.10;99.90;;;;;;5021363;28;20065;-63
2021/12/12 01:19:31;;;;;;;80.15;37.95;;;4.10;99.90;;;;;;5020288;28;20231;-62
2021/12/12 01:22:03;;;;;;;82.35;39.60;;;4.10;99.90;;;;;;5022751;28;20480;-62
2021/12/12 01:24:33;;;;;;;73.82;38.03;;;4.10;99.90;;;;;;5021486;28;20121;-62
2021/12/12 01:27:01;;;;;;;77.93;37.78;;;4.10;99.90;;;;;;5022830;28;20397;-62
2021/12/12 01:29:27;;;;;;;70.93;37.00;;;4.10;99.90;;;;;;5021297;28;20053;-62
2021/12/12 01:31:54;;;;;;;89.10;40.53;;;4.10;99.90;;;;;;5020820;28;20069;-62
2021/12/12 01:34:25;;;;;;;;;;;4.10;99.90;;;;;;5021534;28;20045;-62
2021/12/12 01:37:11;;;;;;;68.55;35.05;;;4.00;99.90;;;;;;5020436;28;19918;-63
2021/12/12 01:39:41;;;;;;;81.88;38.75;;;4.00;99.90;;;;;;5020686;28;20549;-63
2021/12/12 01:42:25;;;;;;;69.82;37.08;;;4.00;99.90;;;;;;5022566;28;20484;-63
2021/12/12 01:44:57;;;;;;;82.20;38.10;;;4.10;99.90;;;;;;5021331;28;20049;-62
2021/12/12 01:47:37;;;;;;;76.93;37.20;;;4.10;99.90;;;;;;5022214;28;20045;-62
2021/12/12 01:50:10;;;;;;;92.63;41.20;;;4.10;99.90;;;;;;5004385;28;20049;-63
2021/12/12 01:52:37;;;;;;;98.93;40.63;;;4.10;99.90;;;;;;5014956;28;20042;-62
2021/12/12 01:55:29;;;;;;;85.53;40.83;;;4.10;99.90;;;;;;5022069;28;20136;-62
2021/12/12 01:57:58;;;;;;;84.05;40.55;;;4.10;99.90;;;;;;5002943;28;20188;-62
2021/12/12 02:00:32;;;;;;;81.65;39.42;;;4.10;99.90;;;;;;5011630;28;20068;-62
2021/12/12 02:02:59;;;;;;;94.85;40.42;;;4.10;99.90;;;;;;5021273;28;20055;-63
2021/12/12 02:05:27;;;;;;;93.47;38.83;;;4.10;99.90;;;;;;5020907;28;20049;-63
2021/12/12 02:07:59;;;;;;;95.45;40.65;;;4.10;99.90;;;;;;5037317;28;20414;-63
2021/12/12 02:10:34;;;;;;;89.95;38.25;;;4.10;99.90;;;;;;5022213;28;20066;-62
2021/12/12 02:13:05;;;;;;;83.85;38.85;;;4.10;99.90;;;;;;5021595;28;20085;-63
2021/12/12 02:15:33;;;;;;;88.28;39.55;;;4.10;99.90;;;;;;5022625;28;20056;-63
2021/12/12 02:18:01;;;;;;;96.63;40.92;;;4.20;99.90;;;;;;5021804;28;20045;-62
2021/12/12 02:20:42;;;;;;;92.47;39.78;;;4.20;99.90;;;;;;5020801;28;20145;-62
2021/12/12 02:36:47;;;;;;;85.15;37.55;;;4.20;99.90;;;;;;5020391;28;20058;-63
2021/12/12 02:39:18;;;;;;;78.30;36.67;;;4.20;99.90;;;;;;5021882;28;20053;-63
2021/12/12 02:41:54;;;;;;;85.63;37.75;;;4.20;99.90;;;;;;5020141;28;20165;-63
2021/12/12 02:44:30;;;;;;;84.07;37.75;;;4.30;99.90;;;;;;5021317;28;20041;-63
2021/12/12 02:47:08;;;;;;;76.72;36.50;;;4.30;99.90;;;;;;5020295;28;20054;-63
2021/12/12 02:49:52;;;;;;;77.15;35.20;;;4.30;99.90;;;;;;5020015;28;20042;-63
2021/12/12 02:52:31;;;;;;;88.40;36.75;;;4.30;99.90;;;;;;5020232;28;20054;-63
2021/12/12 02:55:05;;;;;;;84.60;37.00;;;4.30;99.90;;;;;;5018986;28;20358;-62
2021/12/12 02:57:31;;;;;;;79.07;36.03;;;4.30;99.90;;;;;;5024820;28;20451;-62
2021/12/12 02:59:57;;;;;;;83.18;34.90;;;4.30;99.90;;;;;;5024038;28;20049;-62
2021/12/12 03:02:30;;;;;;;79.38;36.25;;;4.30;99.90;;;;;;5023934;28;20109;-62
2021/12/12 03:04:59;;;;;;;80.68;35.40;;;4.30;99.90;;;;;;5023407;28;20581;-63
2021/12/12 03:07:26;;;;;;;79.47;37.38;;;4.40;99.90;;;;;;5023975;28;20038;-63
2021/12/12 03:09:58;;;;;;;92.55;38.00;;;4.40;99.90;;;;;;5025398;28;20073;-63
2021/12/12 03:12:33;;;;;;;82.13;35.65;;;4.40;99.90;;;;;;5022837;28;20065;-63
2021/12/12 03:15:04;;;;;;;90.32;36.67;;;4.40;99.90;;;;;;5025457;28;20049;-63
2021/12/12 03:17:30;;;;;;;80.72;35.53;;;4.40;99.90;;;;;;5012373;28;20055;-63
2021/12/12 03:20:01;;;;;;;76.78;34.63;;;4.40;99.90;;;;;;5006308;28;20099;-63
2021/12/12 03:22:27;;;;;;;79.15;34.15;;;4.40;99.90;;;;;;5024763;28;20509;-63
2021/12/12 03:24:54;;;;;;;83.82;36.45;;;4.40;99.90;;;;;;5012132;28;20141;-63
2021/12/12 03:27:20;;;;;;;81.82;35.42;;;4.40;99.90;;;;;;5006965;28;20046;-63
2021/12/12 03:29:47;;;;;;;73.10;33.83;;;4.40;99.90;;;;;;5005437;28;20516;-63
2021/12/12 03:32:16;;;;;;;74.57;33.33;;;4.50;99.90;;;;;;5018534;28;20125;-63
2021/12/12 03:34:49;;;;;;;78.72;32.97;;;4.50;99.90;;;;;;5023399;28;20034;-63
2021/12/12 03:37:18;;;;;;;74.75;34.40;;;4.50;99.90;;;;;;5024614;28;20528;-63
2021/12/12 03:39:48;;;;;;;74.70;32.33;;;4.50;99.90;;;;;;5024564;28;20041;-63
2021/12/12 03:42:17;;;;;;;72.32;32.90;;;4.50;99.90;;;;;;5024970;28;20040;-63
2021/12/12 03:44:44;;;;;;;73.65;31.27;;;4.50;99.90;;;;;;5039733;28;20053;-63
2021/12/12 03:47:16;;;;;;;68.50;31.95;;;4.60;99.90;;;;;;5024901;28;20117;-63
2021/12/12 03:49:42;;;;;;;65.93;31.15;;;4.60;99.90;;;;;;5022049;28;20038;-63
2021/12/12 03:52:10;;;;;;;63.13;29.08;;;4.60;99.90;;;;;;5023237;28;20046;-63
2021/12/12 03:54:37;;;;;;;74.10;30.13;;;4.60;99.90;;;;;;5021556;28;20046;-63
2021/12/12 03:57:05;;;;;;;69.70;28.80;;;4.60;99.90;;;;;;5021153;28;20147;-63
2021/12/12 03:59:31;;;;;;;53.08;28.05;;;4.70;99.90;;;;;;5024086;28;20046;-63
2021/12/12 04:01:58;;;;;;;49.85;26.52;;;4.70;99.90;;;;;;5024338;28;20050;-63
2021/12/12 04:04:30;;;;;;;56.85;27.17;;;4.70;99.90;;;;;;5023942;28;20088;-63
2021/12/12 04:06:58;;;;;;;50.50;25.38;;;4.70;99.90;;;;;;5024420;28;20092;-63
2021/12/12 04:09:25;;;;;;;48.65;25.17;;;4.80;99.90;;;;;;5023753;28;20068;-63
2021/12/12 04:11:59;;;;;;;54.83;25.75;;;4.70;99.90;;;;;;5022947;28;20068;-63
2021/12/12 04:14:25;;;;;;;44.67;23.50;;;4.80;99.90;;;;;;5024049;28;20110;-63
2021/12/12 04:16:55;;;;;;;46.85;24.30;;;4.80;99.90;;;;;;5024257;28;20049;-63
2021/12/12 04:19:21;;;;;;;45.85;23.13;;;4.80;99.90;;;;;;5023430;28;20045;-63
2021/12/12 04:21:47;;;;;;;35.78;21.05;;;4.80;99.90;;;;;;5016877;28;20058;-63
2021/12/12 04:24:20;;;;;;;41.50;21.92;;;4.90;99.90;;;;;;5016896;28;20060;-63
2021/12/12 04:26:46;;;;;;;35.42;20.30;;;4.90;99.90;;;;;;5022298;28;20050;-63
2021/12/12 04:29:22;;;;;;;33.15;19.60;;;4.90;99.90;;;;;;5024187;28;20132;-63
2021/12/12 04:31:52;;;;;;;46.23;22.53;;;4.90;99.90;;;;;;5015724;28;20049;-63
2021/12/12 04:34:21;;;;;;;39.50;22.50;;;4.90;99.90;;;;;;5019222;28;20041;-63
2021/12/12 04:36:48;;;;;;;37.88;20.08;;;4.90;99.90;;;;;;5022164;28;20524;-63
2021/12/12 04:39:25;;;;;;;36.85;20.92;;;4.90;99.90;;;;;;5016235;28;20125;-63
2021/12/12 04:41:55;;;;;;;32.30;21.27;;;4.90;99.90;;;;;;5018619;28;20174;-63
2021/12/12 04:44:29;;;;;;;37.85;21.27;;;4.90;99.90;;;;;;5022407;28;20088;-62
2021/12/12 04:50:15;;;;;;;32.03;18.75;;;4.80;99.90;;;;;;5003304;28;20110;-63
2021/12/12 04:52:59;;;;;;;41.10;21.35;;;4.90;99.90;;;;;;5021448;28;20042;-63
2021/12/12 04:55:34;;;;;;;31.95;20.13;;;4.90;99.90;;;;;;5021627;28;20045;-63
2021/12/12 04:57:59;;;;;;;36.10;20.02;;;4.90;99.90;;;;;;5003637;28;20043;-63
2021/12/12 05:00:35;;;;;;;28.87;17.97;;;4.90;99.90;;;;;;5011428;28;20153;-63
2021/12/12 05:03:15;;;;;;;32.22;18.50;;;4.90;99.90;;;;;;5012924;28;20101;-63
2021/12/12 05:06:10;;;;;;;31.98;18.85;;;4.90;99.90;;;;;;5021603;28;20053;-63
2021/12/12 05:08:41;;;;;;;29.25;18.08;;;4.90;99.90;;;;;;5021740;28;20053;-63
2021/12/12 05:11:19;;;;;;;25.63;17.70;;;4.90;99.90;;;;;;5022626;28;20105;-62
2021/12/12 05:13:55;;;;;;;23.52;16.42;;;4.90;99.90;;;;;;5021644;28;20189;-62
2021/12/12 05:16:30;;;;;;;32.20;15.60;;;4.90;99.90;;;;;;5021541;28;20052;-63
2021/12/12 05:19:06;;;;;;;28.52;17.35;;;4.90;99.90;;;;;;5020747;28;20057;-63
2021/12/12 05:21:36;;;;;;;28.02;16.67;;;4.90;99.90;;;;;;5021118;28;20052;-62
2021/12/12 05:24:05;;;;;;;29.02;17.58;;;4.90;99.90;;;;;;5022789;28;20065;-62
2021/12/12 05:26:36;;;;;;;24.27;15.38;;;4.90;99.90;;;;;;5022893;28;20046;-63
2021/12/12 05:29:07;;;;;;;26.13;16.15;;;4.90;99.90;;;;;;5001682;28;20054;-63
2021/12/12 05:31:33;;;;;;;24.10;15.65;;;4.90;99.90;;;;;;5010737;28;20545;-62
2021/12/12 05:34:00;;;;;;;22.30;14.95;;;4.90;99.90;;;;;;5020334;28;20049;-62
2021/12/12 05:36:28;;;;;;;23.83;15.18;;;5.00;99.90;;;;;;5021238;28;20113;-63
2021/12/12 05:38:57;;;;;;;22.55;15.45;;;5.00;99.90;;;;;;5022657;28;20084;-62
2021/12/12 05:41:23;;;;;;;23.25;15.57;;;5.00;99.90;;;;;;5022667;28;20412;-62
2021/12/12 05:43:54;;;;;;;23.88;16.00;;;5.00;99.90;;;;;;5022628;28;20045;-62
2021/12/12 05:46:20;;;;;;;24.27;16.00;;;5.00;99.90;;;;;;5021996;28;20034;-62
2021/12/12 05:48:47;;;;;;;;;;;5.00;99.90;;;;;;5014246;28;20077;-63
2021/12/12 05:51:14;;;;;;;25.58;16.10;;;5.00;99.90;;;;;;5007356;28;19921;-64
2021/12/12 05:53:40;;;;;;;25.90;16.40;;;5.00;99.90;;;;;;5021001;28;20145;-63
2021/12/12 05:56:07;;;;;;;25.00;17.05;;;5.10;99.90;;;;;;5014298;28;20129;-63
2021/12/12 05:58:33;;;;;;;;;;;5.10;99.90;;;;;;5009368;28;20102;-63
2021/12/12 06:01:07;;;;;;;23.85;15.75;;;5.10;99.90;;;;;;5016629;28;19921;-63
2021/12/12 06:03:38;;;;;;;26.48;16.83;;;5.10;99.90;;;;;;5022442;28;20053;-64
2021/12/12 06:06:10;;;;;;;23.73;16.13;;;5.10;99.90;;;;;;5021992;28;20045;-63
2021/12/12 06:08:38;;;;;;;24.05;15.88;;;5.20;99.90;;;;;;5021936;28;20054;-63
2021/12/12 06:11:05;;;;;;;24.85;17.02;;;5.20;99.90;;;;;;5022088;28;20050;-63
2021/12/12 06:13:31;;;;;;;31.55;17.88;;;5.20;99.90;;;;;;5020839;28;20448;-64
2021/12/12 06:15:58;;;;;;;24.38;17.52;;;5.20;99.90;;;;;;5022505;28;20053;-64
2021/12/12 06:18:25;;;;;;;;;;;5.20;99.90;;;;;;5004179;28;20041;-64
2021/12/12 06:20:51;;;;;;;24.95;16.23;;;5.20;99.90;;;;;;5022411;28;20294;-63
2021/12/12 06:23:17;;;;;;;;;;;5.30;99.90;;;;;;5020938;28;20140;-63
2021/12/12 06:25:45;;;;;;;31.98;16.48;;;5.30;99.90;;;;;;5017696;28;19980;-63
2021/12/12 06:28:25;;;;;;;29.35;17.23;;;5.30;99.90;;;;;;5021463;28;20104;-63
2021/12/12 06:30:53;;;;;;;33.03;18.08;;;5.30;99.90;;;;;;5016798;28;20069;-63
2021/12/12 06:33:19;;;;;;;29.80;18.30;;;5.30;99.90;;;;;;5023803;28;20041;-63
2021/12/12 06:35:44;;;;;;;27.67;17.27;;;5.30;99.90;;;;;;5024618;28;20069;-63
2021/12/12 06:38:12;;;;;;;27.83;16.00;;;5.30;99.90;;;;;;5025369;28;20129;-63
2021/12/12 06:40:40;;;;;;;25.30;16.48;;;5.30;99.90;;;;;;5025928;28;20041;-63
2021/12/12 06:43:09;;;;;;;27.45;17.17;;;5.40;99.90;;;;;;5026031;28;20117;-63
2021/12/12 06:45:36;;;;;;;27.80;16.88;;;5.40;99.90;;;;;;5024478;28;20141;-63
2021/12/12 06:48:06;;;;;;;27.08;16.88;;;5.40;99.90;;;;;;5023167;28;20169;-64
2021/12/12 06:50:33;;;;;;;29.15;17.20;;;5.40;99.90;;;;;;5025638;28;20046;-63
2021/12/12 06:53:00;;;;;;;28.58;16.83;;;5.40;99.90;;;;;;5024153;28;20120;-63
2021/12/12 06:55:26;;;;;;;28.88;18.08;;;5.50;99.90;;;;;;5024127;28;20095;-63
2021/12/12 06:57:52;;;;;;;27.80;17.23;;;5.50;99.90;;;;;;5023068;28;20136;-63
2021/12/12 07:00:22;;;;;;;29.08;17.08;;;5.50;99.90;;;;;;5025241;28;20052;-64
2021/12/12 07:02:49;;;;;;;29.05;17.15;;;5.50;99.90;;;;;;5023731;28;20137;-64
2021/12/12 07:05:21;;;;;;;29.10;17.02;;;5.50;99.90;;;;;;5023914;28;20081;-64
2021/12/12 07:07:49;;;;;;;33.92;18.30;;;5.60;99.90;;;;;;5024192;28;20072;-64
2021/12/12 07:10:18;;;;;;;35.08;18.55;;;5.60;99.90;;;;;;5021820;28;20053;-64
2021/12/12 07:12:44;;;;;;;32.15;17.27;;;5.60;99.90;;;;;;5023658;28;20057;-65
2021/12/12 07:15:13;;;;;;;31.55;17.60;;;5.60;99.90;;;;;;5024110;28;20057;-63
2021/12/12 07:17:39;;;;;;;33.03;17.60;;;5.60;99.90;;;;;;5024938;28;20053;-64
2021/12/12 07:20:09;;;;;;;31.02;18.10;;;5.60;99.90;;;;;;5025408;28;20385;-61
2021/12/12 07:22:35;;;;;;;31.30;17.23;;;5.70;99.90;;;;;;5024751;28;20050;-63
2021/12/12 07:25:04;;;;;;;37.05;19.85;;;5.60;99.90;;;;;;5023700;28;20045;-62
2021/12/12 07:27:30;;;;;;;30.27;17.63;;;5.70;99.90;;;;;;5025381;28;20053;-62
2021/12/12 07:29:57;;;;;;;33.97;18.67;;;5.70;99.90;;;;;;5024812;28;20042;-63
2021/12/12 07:32:24;;;;;;;38.50;19.35;;;5.70;99.90;;;;;;5025069;28;20090;-62
2021/12/12 07:34:50;;;;;;;34.67;18.40;;;5.70;99.90;;;;;;5023279;28;20037;-62
2021/12/12 07:37:16;;;;;;;39.78;20.38;;;5.70;99.90;;;;;;5023488;28;20173;-61
2021/12/12 07:39:44;;;;;;;38.30;19.65;;;5.80;99.90;;;;;;5024523;28;20038;-64
2021/12/12 07:42:11;;;;;;;33.67;18.45;;;5.80;99.90;;;;;;5022753;28;20046;-65
2021/12/12 07:44:40;;;;;;;41.13;20.48;;;5.80;99.90;;;;;;5023213;28;20065;-61
2021/12/12 07:47:08;;;;;;;43.30;20.38;;;5.80;99.90;;;;;;5024928;28;20045;-61
2021/12/12 07:49:37;;;;;;;39.47;20.27;;;5.80;99.90;;;;;;5016210;28;20049;-61
2021/12/12 07:52:07;;;;;;;43.20;21.70;;;5.90;99.90;;;;;;5022614;28;20094;-60
2021/12/12 07:54:34;;;;;;;40.75;19.83;;;5.90;99.90;;;;;;5023363;28;20038;-60
2021/12/12 07:57:00;;;;;;;42.50;20.77;;;5.90;99.90;;;;;;5023995;28;20085;-59
2021/12/12 07:59:26;;;;;;;39.47;20.55;;;6.00;99.90;;;;;;5038533;28;20044;-59
2021/12/12 08:01:52;;;;;;;45.05;21.60;;;5.90;99.90;;;;;;5023225;28;20038;-59
2021/12/12 08:04:22;;;;;;;41.53;21.05;;;6.00;99.90;;;;;;5002110;28;20038;-59
2021/12/12 08:06:50;;;;;;;44.38;21.35;;;6.00;99.90;;;;;;5023919;28;20046;-59
2021/12/12 08:09:16;;;;;;;40.65;20.42;;;6.00;99.90;;;;;;5023923;28;20073;-59
2021/12/12 08:11:44;;;;;;;39.80;19.83;;;6.00;99.90;;;;;;5024020;28;20089;-59
2021/12/12 08:14:14;;;;;;;41.72;20.95;;;6.10;99.90;;;;;;5022244;28;20068;-59
2021/12/12 08:16:40;;;;;;;47.53;21.55;;;6.10;99.90;;;;;;5024087;28;20069;-58
2021/12/12 08:19:07;;;;;;;48.60;21.95;;;6.10;99.90;;;;;;5023026;28;20069;-59
2021/12/12 08:21:33;;;;;;;;;;;6.10;99.90;;;;;;5022367;28;20050;-59
2021/12/12 08:24:01;;;;;;;43.97;19.83;;;6.10;99.90;;;;;;5024090;28;19921;-59
2021/12/12 08:26:28;;;;;;;51.40;20.92;;;6.10;99.90;;;;;;5023962;28;20057;-59
2021/12/12 08:28:54;;;;;;;52.72;22.92;;;6.20;99.90;;;;;;5022367;28;20042;-59
2021/12/12 08:31:20;;;;;;;51.60;22.30;;;6.20;99.90;;;;;;5023545;28;20126;-59
2021/12/12 08:33:46;;;;;;;46.88;21.65;;;6.20;99.90;;;;;;5021919;28;20410;-60
2021/12/12 08:36:15;;;;;;;50.50;21.73;;;6.20;99.90;;;;;;5022085;28;20100;-62
2021/12/12 08:38:43;;;;;;;51.92;22.70;;;6.20;99.90;;;;;;5020325;28;20297;-61
2021/12/12 08:41:09;;;;;;;52.42;22.42;;;6.30;99.90;;;;;;5018450;28;20133;-61
2021/12/12 08:43:35;;;;;;;58.85;24.35;;;6.30;99.90;;;;;;5021124;28;20065;-61
2021/12/12 08:46:05;;;;;;;50.20;22.63;;;6.40;99.90;;;;;;5023632;28;20380;-61
2021/12/12 08:48:35;;;;;;;55.55;22.65;;;6.40;99.90;;;;;;5021731;28;20061;-61
2021/12/12 08:51:08;;;;;;;54.10;23.30;;;6.40;99.90;;;;;;5021139;28;20069;-61
2021/12/12 08:53:34;;;;;;;60.78;23.55;;;6.40;99.90;;;;;;5021292;28;20050;-59
2021/12/12 08:56:01;;;;;;;67.93;25.20;;;6.40;99.90;;;;;;5014500;28;20497;-61
2021/12/12 08:58:30;;;;;;;63.60;24.27;;;6.50;99.90;;;;;;5010952;28;20049;-60
2021/12/12 09:01:04;;;;;;;53.38;23.48;;;6.40;99.90;;;;;;5021451;28;20046;-61
2021/12/12 09:03:53;;;;;;;62.28;25.10;;;6.50;99.90;;;;;;5004568;28;20081;-62
2021/12/12 09:06:27;;;;;;;63.55;25.48;;;6.50;99.90;;;;;;5021784;28;20073;-63
2021/12/12 09:09:00;;;;;;;67.18;25.73;;;6.50;99.90;;;;;;5022054;28;20128;-63
2021/12/12 09:11:35;;;;;;;61.50;25.05;;;6.50;99.90;;;;;;5020722;28;20049;-61
2021/12/12 09:14:21;;;;;;;64.78;25.85;;;6.50;99.90;;;;;;5018726;28;20060;-63
2021/12/12 09:16:59;;;;;;;68.93;26.65;;;6.50;99.90;;;;;;5023448;28;20049;-62
2021/12/12 09:19:45;;;;;;;73.03;26.60;;;6.60;99.90;;;;;;5022761;28;20069;-60
2021/12/12 09:22:35;;;;;;;66.88;27.15;;;6.60;99.90;;;;;;5022730;28;20042;-62
2021/12/12 09:25:11;;;;;;;89.65;28.95;;;6.60;99.90;;;;;;5021696;28;20073;-63
2021/12/12 09:27:52;;;;;;;84.82;29.63;;;6.60;99.90;;;;;;5023312;28;20060;-57
2021/12/12 09:30:22;;;;;;;86.15;30.48;;;6.70;99.90;;;;;;5023173;28;20215;-63
2021/12/12 09:32:48;;;;;;;85.22;30.55;;;6.70;99.90;;;;;;5020764;28;20180;-63
2021/12/12 09:35:45;;;;;;;91.93;30.88;;;6.70;99.90;;;;;;5021540;28;20061;-65
2021/12/12 09:38:32;;;;;;;86.53;30.33;;;6.70;99.90;;;;;;5022123;28;20042;-63
2021/12/12 09:41:23;;;;;;;88.43;30.97;;;6.70;99.90;;;;;;5020684;28;20059;-65
2021/12/12 09:44:21;;;;;;;109.50;33.35;;;6.80;99.90;;;;;;5037239;28;20320;-65
2021/12/12 09:47:30;;;;;;;107.25;31.52;;;6.80;99.90;;;;;;5022685;28;20046;-65
2021/12/12 09:53:29;;;;;;;114.05;33.17;;;6.90;99.90;;;;;;5022662;28;20057;-65
2021/12/12 09:56:14;;;;;;;120.60;34.20;;;6.90;99.90;;;;;;5011617;28;20062;-65
2021/12/12 09:58:59;;;;;;;141.27;38.00;;;7.00;99.90;;;;;;5022152;28;20046;-64
2021/12/12 10:01:42;;;;;;;134.63;36.97;;;7.00;99.90;;;;;;5021290;28;20106;-64
2021/12/12 10:04:28;;;;;;;137.45;36.03;;;7.00;99.90;;;;;;5022078;28;20034;-63
2021/12/12 10:07:06;;;;;;;140.73;38.40;;;7.00;99.90;;;;;;5004549;28;20058;-63
2021/12/12 10:10:00;;;;;;;165.75;39.63;;;7.10;99.90;;;;;;5021069;28;20068;-63
2021/12/12 10:12:33;;;;;;;161.50;38.83;;;7.10;99.90;;;;;;5018637;28;20046;-66
2021/12/12 10:14:59;;;;;;;154.60;39.42;;;7.10;99.90;;;;;;5022237;28;20046;-62
2021/12/12 10:17:58;;;;;;;148.10;39.63;;;7.20;99.90;;;;;;5019336;28;20136;-58
2021/12/12 10:20:48;;;;;;;144.32;38.92;;;7.20;99.90;;;;;;5022519;28;20072;-63
2021/12/12 10:23:17;;;;;;;150.00;41.28;;;7.30;99.90;;;;;;5020983;28;20061;-63
2021/12/12 10:25:46;;;;;;;189.65;42.80;;;7.30;99.90;;;;;;5022169;28;20140;-63
2021/12/12 10:28:49;;;;;;;145.02;40.53;;;7.30;99.90;;;;;;5022520;28;20069;-64
2021/12/12 10:31:24;;;;;;;155.48;41.17;;;7.40;99.90;;;;;;5022315;28;20053;-64
2021/12/12 10:34:03;;;;;;;129.60;37.70;;;7.40;99.90;;;;;;5022202;28;20104;-64
2021/12/12 10:37:06;;;;;;;172.48;42.33;;;7.50;99.90;;;;;;5021977;28;20194;-62
2021/12/12 10:39:52;;;;;;;169.48;41.05;;;7.60;99.90;;;;;;4942412;29;20055;-62
2021/12/12 10:42:26;;;;;;;144.30;38.85;;;7.60;99.90;;;;;;4960089;29;20131;-63
2021/12/12 10:45:02;;;;;;;161.35;39.88;;;7.60;99.90;;;;;;4944827;29;20059;-63
2021/12/12 10:47:36;;;;;;;136.15;38.53;;;7.60;99.90;;;;;;4944614;29;20066;-64
2021/12/12 10:50:21;;;;;;;125.82;36.42;;;7.70;99.90;;;;;;4961488;29;20158;-62
2021/12/12 10:52:58;;;;;;;137.80;38.33;;;7.80;99.90;;;;;;4945457;29;20047;-62
2021/12/12 10:55:55;;;;;;;154.23;39.90;;;7.80;99.90;;;;;;4960646;29;20081;-63
2021/12/12 10:58:34;;;;;;;136.52;38.90;;;7.80;99.90;;;;;;4924823;29;20067;-63
2021/12/12 11:01:09;;;;;;;148.02;39.10;;;7.90;99.90;;;;;;4942058;29;20086;-62
2021/12/12 11:04:03;;;;;;;139.32;38.28;;;7.90;99.90;;;;;;4941650;29;20478;-63
2021/12/12 11:06:37;;;;;;;141.75;39.80;;;7.90;99.90;;;;;;4922421;29;20080;-63
2021/12/12 11:09:23;;;;;;;136.50;38.40;;;7.90;99.90;;;;;;4906846;29;20164;-63
2021/12/12 11:12:07;;;;;;;153.48;40.83;;;7.90;99.90;;;;;;4906585;29;20060;-62
2021/12/12 11:14:45;;;;;;;152.13;39.15;;;8.00;99.90;;;;;;4922702;29;20052;-62
2021/12/12 11:17:19;;;;;;;123.10;36.67;;;8.00;99.90;;;;;;4923999;29;20217;-62
2021/12/12 11:19:57;;;;;;;136.70;36.88;;;8.00;99.90;;;;;;4910159;29;20056;-62
2021/12/12 11:22:55;;;;;;;144.00;39.50;;;8.10;99.90;;;;;;4910519;29;20156;-62
2021/12/12 11:25:34;;;;;;;110.05;34.92;;;8.10;99.90;;;;;;4907467;29;20091;-62
2021/12/12 11:28:09;;;;;;;135.48;37.33;;;8.10;99.90;;;;;;4910264;29;20071;-62
2021/12/12 11:30:41;;;;;;;154.07;39.47;;;8.20;99.90;;;;;;4910394;29;20067;-62
2021/12/12 11:33:11;;;;;;;119.78;36.53;;;8.20;99.90;;;;;;4925484;29;20158;-62
2021/12/12 11:35:40;;;;;;;144.73;37.97;;;8.20;99.90;;;;;;4921613;29;20063;-62
2021/12/12 11:38:16;;;;;;;128.98;36.35;;;8.30;99.90;;;;;;4963154;29;20051;-63
2021/12/12 11:40:54;;;;;;;118.55;35.95;;;8.30;99.90;;;;;;4937790;29;20050;-63
2021/12/12 11:43:48;;;;;;;106.80;33.67;;;8.30;99.90;;;;;;4988179;28;20074;-64
2021/12/12 11:46:34;;;;;;;112.25;34.30;;;8.40;99.90;;;;;;5015829;28;20069;-65
2021/12/12 11:49:16;;;;;;;115.80;34.30;;;8.40;99.90;;;;;;5013611;28;20053;-64
2021/12/12 11:51:48;;;;;;;115.82;33.60;;;8.50;99.90;;;;;;5024644;28;20050;-65
2021/12/12 11:54:51;;;;;;;120.10;33.42;;;8.50;99.90;;;;;;5019862;28;20054;-64
2021/12/12 11:57:25;;;;;;;123.75;34.20;;;8.50;99.90;;;;;;5022630;28;20153;-63
2021/12/12 12:00:08;;;;;;;115.07;34.05;;;8.50;99.90;;;;;;5023313;28;20722;-61
2021/12/12 12:02:36;;;;;;;82.22;30.23;;;8.50;99.90;;;;;;5022796;28;20073;-65
2021/12/12 12:05:14;;;;;;;115.45;34.42;;;8.60;99.90;;;;;;5024423;28;20045;-63
2021/12/12 12:08:04;;;;;;;109.20;34.17;;;8.60;99.90;;;;;;5023995;28;20128;-63
2021/12/12 12:10:51;;;;;;;108.63;33.47;;;8.60;99.90;;;;;;5004752;28;20054;-64
2021/12/12 12:13:32;;;;;;;93.97;31.98;;;8.70;99.90;;;;;;5019074;28;20158;-64
2021/12/12 12:16:35;;;;;;;118.07;34.63;;;8.70;99.90;;;;;;5024628;28;20052;-64
2021/12/12 12:19:35;;;;;;;111.90;34.33;;;8.70;99.90;;;;;;4982118;28;20090;-62
2021/12/12 12:22:36;;;;;;;126.40;35.58;;;8.70;99.90;;;;;;4966674;28;20110;-62
2021/12/12 12:25:30;;;;;;;118.78;34.30;;;8.70;99.90;;;;;;4966369;28;20112;-62
2021/12/12 12:28:06;;;;;;;105.72;33.15;;;8.70;99.90;;;;;;4981556;28;20047;-63
2021/12/12 12:30:31;;;;;;;101.82;31.85;;;8.70;99.90;;;;;;4982358;28;20074;-63
2021/12/12 12:33:34;;;;;;;93.10;28.73;;;8.70;99.90;;;;;;4993147;28;20049;-62
2021/12/12 12:36:21;;;;;;;104.22;30.88;;;8.80;99.90;;;;;;4949737;28;20174;-62
2021/12/12 12:39:31;;;;;;;88.78;29.98;;;8.80;99.90;;;;;;4982290;28;20532;-62
2021/12/12 12:42:54;;;;;;;86.90;28.33;;;8.80;99.90;;;;;;4965842;28;20063;-60
2021/12/12 12:45:35;;;;;;;117.32;32.08;;;8.80;99.90;;;;;;4965688;28;20166;-60
2021/12/12 12:48:13;;;;;;;80.15;26.52;;;8.80;99.90;;;;;;4965233;28;20150;-60
2021/12/12 12:50:56;;;;;;;78.38;25.80;;;8.80;99.90;;;;;;4981229;28;20054;-59
2021/12/12 12:53:45;;;;;;;77.70;26.20;;;8.80;99.90;;;;;;4981945;28;20051;-59
2021/12/12 12:56:23;;;;;;;83.78;27.35;;;8.90;99.90;;;;;;5004867;28;20141;-59
2021/12/12 12:59:01;;;;;;;76.32;25.42;;;8.90;99.90;;;;;;5023723;28;20049;-60
2021/12/12 13:01:36;;;;;;;70.97;25.23;;;8.90;99.90;;;;;;5022342;28;20085;-61
2021/12/12 13:04:20;;;;;;;66.22;24.25;;;9.00;99.90;;;;;;5021693;28;20184;-60
2021/12/12 13:07:08;;;;;;;79.32;25.65;;;9.00;99.90;;;;;;5023442;28;20065;-64
2021/12/12 13:09:59;;;;;;;101.45;28.88;;;9.00;99.90;;;;;;5005961;28;20077;-62
2021/12/12 13:12:50;;;;;;;68.40;24.58;;;9.00;99.90;;;;;;5022234;28;20133;-61
2021/12/12 13:15:46;;;;;;;81.55;26.02;;;9.10;99.90;;;;;;5022166;28;20148;-62
2021/12/12 13:18:33;;;;;;;70.80;25.20;;;9.10;99.90;;;;;;5010037;28;20041;-62
2021/12/12 13:21:27;;;;;;;79.93;25.83;;;9.10;99.90;;;;;;5007577;28;20053;-61
2021/12/12 13:24:07;;;;;;;66.53;23.13;;;9.10;99.90;;;;;;5018052;28;20045;-62
2021/12/12 13:26:36;;;;;;;71.63;24.30;;;9.10;99.90;;;;;;5019460;28;20077;-63
2021/12/12 13:29:15;;;;;;;67.45;24.27;;;9.20;99.90;;;;;;5021421;28;20563;-62
2021/12/12 13:32:09;;;;;;;77.38;25.08;;;9.20;99.90;;;;;;5022867;28;20103;-61
2021/12/12 13:34:47;;;;;;;82.53;24.63;;;9.20;99.90;;;;;;5000705;28;20066;-61